Time;durP1;ratioP1;P1;durP2;ratioP2;P2;SDS_P1;SDS_P2;PMS_P1;PMS_P2;Temp;Humidity;BMP_temperature;BMP_pressure;BME280_temperature;BME280_humidity;BME280_pressure;Samples;Min_cycle;Max_cycle;Signal;HPM_P1;HPM_P2
2021/12/30 00:02:07;;;;;;;22.30;6.23;;;12.90;99.90;;;;;;5056719;28;20465;-66
2021/12/30 00:04:34;;;;;;;23.93;5.03;;;12.90;99.90;;;;;;5056617;28;20452;-66
2021/12/30 00:07:00;;;;;;;19.23;5.67;;;12.90;99.90;;;;;;5056435;28;20869;-66
2021/12/30 00:09:29;;;;;;;23.83;5.70;;;12.80;99.90;;;;;;5057085;28;20438;-66
2021/12/30 00:11:56;;;;;;;24.57;5.37;;;12.90;99.90;;;;;;5056480;28;20504;-66
2021/12/30 00:14:23;;;;;;;25.83;6.20;;;12.90;99.90;;;;;;5056425;28;20446;-66
2021/12/30 00:16:49;;;;;;;17.43;4.87;;;12.90;99.90;;;;;;5056432;28;20842;-66
2021/12/30 00:19:16;;;;;;;21.00;5.30;;;12.90;99.90;;;;;;5056081;28;20485;-66
2021/12/30 00:21:43;;;;;;;22.73;6.30;;;12.90;99.90;;;;;;5056231;28;20465;-66
2021/12/30 00:24:11;;;;;;;20.33;5.70;;;12.90;99.90;;;;;;5056408;28;20450;-66
2021/12/30 00:26:39;;;;;;;23.23;5.47;;;12.90;99.90;;;;;;5056197;28;20541;-66
2021/12/30 00:29:06;;;;;;;24.97;6.33;;;12.90;99.90;;;;;;5056098;28;20446;-66
2021/12/30 00:31:32;;;;;;;17.93;5.10;;;12.90;99.90;;;;;;5056026;28;20469;-66
2021/12/30 00:33:59;;;;;;;21.70;4.70;;;12.90;99.90;;;;;;5056313;28;20429;-66
2021/12/30 00:36:26;;;;;;;16.80;4.73;;;12.90;99.90;;;;;;5055684;28;20460;-66
2021/12/30 00:38:53;;;;;;;15.20;4.63;;;12.90;99.90;;;;;;5055919;28;20509;-66
2021/12/30 00:41:20;;;;;;;15.40;4.87;;;12.90;99.90;;;;;;5055838;28;20470;-66
2021/12/30 00:43:48;;;;;;;32.03;6.13;;;12.90;99.90;;;;;;5055808;28;20477;-66
2021/12/30 00:46:15;;;;;;;18.03;4.70;;;12.90;99.90;;;;;;5055768;28;20504;-66
2021/12/30 00:48:42;;;;;;;22.97;5.03;;;12.90;99.90;;;;;;5055785;28;20445;-65
2021/12/30 00:51:09;;;;;;;26.73;6.73;;;13.00;99.90;;;;;;5055646;28;20469;-66
2021/12/30 00:53:36;;;;;;;24.43;4.83;;;13.00;99.90;;;;;;5054603;28;20449;-66
2021/12/30 00:56:03;;;;;;;20.00;4.43;;;13.00;99.90;;;;;;5055579;28;20449;-66
2021/12/30 00:58:30;;;;;;;19.77;4.80;;;13.00;99.90;;;;;;5055454;28;20450;-66
2021/12/30 01:00:59;;;;;;;19.73;4.70;;;13.00;99.90;;;;;;5055513;28;20445;-66
2021/12/30 01:03:27;;;;;;;23.73;5.30;;;13.00;99.90;;;;;;5055888;28;20548;-66
2021/12/30 01:05:54;;;;;;;26.67;5.13;;;13.10;99.90;;;;;;5055438;28;20544;-66
2021/12/30 01:08:21;;;;;;;25.33;6.40;;;13.10;99.90;;;;;;5055353;28;20512;-66
2021/12/30 01:10:48;;;;;;;24.73;7.13;;;13.10;99.90;;;;;;5055437;28;20468;-66
2021/12/30 01:13:20;;;;;;;18.23;4.80;;;13.10;99.90;;;;;;5055341;28;20453;-66
2021/12/30 01:15:56;;;;;;;17.80;4.60;;;13.10;99.90;;;;;;5055308;28;20487;-66
2021/12/30 01:18:33;;;;;;;18.57;5.23;;;13.10;99.90;;;;;;5055316;28;20453;-66
2021/12/30 01:21:00;;;;;;;20.00;5.30;;;13.10;99.90;;;;;;5055122;28;20776;-66
2021/12/30 01:23:28;;;;;;;22.90;5.40;;;13.00;99.90;;;;;;5055123;28;20491;-66
2021/12/30 01:25:56;;;;;;;21.53;5.07;;;13.10;99.90;;;;;;5055049;28;20437;-66
2021/12/30 01:28:23;;;;;;;21.67;5.10;;;13.00;99.90;;;;;;5055006;28;20441;-66
2021/12/30 01:30:51;;;;;;;17.47;5.20;;;13.00;99.90;;;;;;5054831;28;20437;-66
2021/12/30 01:33:18;;;;;;;20.93;5.00;;;13.10;99.90;;;;;;5055043;28;20441;-65
2021/12/30 01:35:47;;;;;;;20.73;4.30;;;13.00;99.90;;;;;;5055161;28;20450;-66
2021/12/30 01:38:16;;;;;;;17.23;4.20;;;13.00;99.90;;;;;;5054542;28;20939;-66
2021/12/30 01:40:45;;;;;;;17.93;5.50;;;13.10;99.90;;;;;;5054717;28;20481;-66
2021/12/30 01:43:12;;;;;;;23.87;4.80;;;13.00;99.90;;;;;;5054700;28;20453;-66
2021/12/30 01:45:39;;;;;;;20.00;5.10;;;13.00;99.90;;;;;;5054687;28;20445;-66
2021/12/30 01:48:07;;;;;;;25.13;5.93;;;13.00;99.90;;;;;;5054699;28;20445;-65
2021/12/30 01:50:34;;;;;;;19.53;5.80;;;13.00;99.90;;;;;;5054699;28;20425;-66
2021/12/30 01:53:04;;;;;;;23.93;5.33;;;13.10;99.90;;;;;;5054606;28;20474;-66
2021/12/30 01:55:32;;;;;;;17.50;4.70;;;13.10;99.90;;;;;;5054702;28;20484;-66
2021/12/30 01:57:59;;;;;;;22.13;5.23;;;13.10;99.90;;;;;;5054833;28;20455;-66
2021/12/30 02:00:27;;;;;;;21.40;6.53;;;13.10;99.90;;;;;;5054308;28;20481;-66
2021/12/30 02:02:54;;;;;;;18.43;5.50;;;13.10;99.90;;;;;;5054195;28;20466;-65
2021/12/30 02:05:22;;;;;;;19.73;5.20;;;13.10;99.90;;;;;;5054108;28;20426;-66
2021/12/30 02:07:48;;;;;;;17.63;5.90;;;13.10;99.90;;;;;;5054260;28;20456;-66
2021/12/30 02:10:17;;;;;;;19.90;4.80;;;13.10;99.90;;;;;;5053858;28;20437;-66
2021/12/30 02:12:46;;;;;;;16.93;4.97;;;13.10;99.90;;;;;;5054127;28;20476;-66
2021/12/30 02:15:15;;;;;;;11.20;4.10;;;13.20;99.90;;;;;;5054142;28;20499;-66
2021/12/30 02:17:42;;;;;;;22.53;5.67;;;13.20;99.90;;;;;;5054072;28;20457;-66
2021/12/30 02:20:13;;;;;;;18.33;5.40;;;13.10;99.90;;;;;;5053884;28;21070;-66
2021/12/30 02:22:40;;;;;;;22.20;6.43;;;13.20;99.90;;;;;;5053956;28;20469;-66
2021/12/30 02:25:08;;;;;;;15.20;5.00;;;13.20;99.90;;;;;;5054012;28;20450;-66
2021/12/30 02:27:35;;;;;;;12.83;4.93;;;13.20;99.90;;;;;;5053925;28;20441;-66
2021/12/30 02:30:02;;;;;;;18.53;4.80;;;13.30;99.90;;;;;;5053976;28;20449;-66
2021/12/30 02:32:29;;;;;;;16.00;5.03;;;13.30;99.90;;;;;;5053478;28;20991;-66
2021/12/30 02:34:55;;;;;;;23.43;6.30;;;13.30;99.90;;;;;;5053793;28;21023;-66
2021/12/30 02:37:24;;;;;;;19.07;5.33;;;13.40;99.90;;;;;;5054656;28;20442;-65
2021/12/30 02:39:53;;;;;;;19.40;5.03;;;13.40;99.90;;;;;;5054322;28;20504;-66
2021/12/30 02:42:23;;;;;;;16.97;6.20;;;13.40;99.90;;;;;;5053638;28;20527;-66
2021/12/30 02:44:50;;;;;;;18.90;5.90;;;13.40;99.90;;;;;;5053931;28;20465;-66
2021/12/30 02:47:18;;;;;;;15.57;5.50;;;13.40;99.90;;;;;;5053908;28;20951;-66
2021/12/30 02:49:45;;;;;;;19.23;6.87;;;13.40;99.90;;;;;;5053897;28;20955;-66
2021/12/30 02:52:12;;;;;;;15.37;5.90;;;13.40;99.90;;;;;;5053621;28;20474;-66
2021/12/30 02:54:42;;;;;;;24.73;7.40;;;13.40;99.90;;;;;;5053557;28;20445;-66
2021/12/30 02:57:08;;;;;;;20.77;7.63;;;13.50;99.90;;;;;;5053515;28;20468;-66
2021/12/30 02:59:36;;;;;;;14.90;7.50;;;13.50;99.90;;;;;;5053426;28;20477;-66
2021/12/30 03:02:03;;;;;;;21.00;7.10;;;13.50;99.90;;;;;;5053444;28;20469;-66
2021/12/30 03:04:30;;;;;;;19.43;7.60;;;13.50;99.90;;;;;;5053350;28;20441;-66
2021/12/30 03:06:57;;;;;;;15.20;7.20;;;13.40;99.90;;;;;;5053403;28;20520;-66
2021/12/30 03:09:24;;;;;;;17.50;6.93;;;13.50;99.90;;;;;;5053324;28;20437;-66
2021/12/30 03:11:54;;;;;;;11.43;6.10;;;13.50;99.90;;;;;;5053313;28;20465;-66
2021/12/30 03:14:24;;;;;;;18.63;6.20;;;13.50;99.90;;;;;;5053575;28;20448;-66
2021/12/30 03:16:51;;;;;;;17.33;7.37;;;13.50;99.90;;;;;;5054821;28;20444;-66
2021/12/30 03:19:17;;;;;;;14.43;6.30;;;13.60;99.90;;;;;;5057218;28;20487;-66
2021/12/30 03:21:44;;;;;;;19.43;8.57;;;13.60;99.90;;;;;;5057387;28;20465;-66
2021/12/30 03:24:11;;;;;;;20.10;8.20;;;13.60;99.90;;;;;;5057036;28;20935;-66
2021/12/30 03:26:37;;;;;;;20.40;8.43;;;13.70;99.90;;;;;;5057730;28;20468;-67
2021/12/30 03:29:06;;;;;;;17.67;7.97;;;13.60;99.90;;;;;;5057544;28;20460;-67
2021/12/30 03:31:33;;;;;;;18.60;7.87;;;13.70;99.90;;;;;;5057199;28;20503;-66
2021/12/30 03:33:59;;;;;;;13.60;8.10;;;13.70;99.90;;;;;;5056887;28;20843;-66
2021/12/30 03:36:26;;;;;;;14.37;8.10;;;13.60;99.90;;;;;;5056924;28;20947;-66
2021/12/30 03:38:54;;;;;;;19.60;8.00;;;13.60;99.90;;;;;;5056852;28;20900;-66
2021/12/30 03:41:24;;;;;;;14.60;7.73;;;13.60;99.90;;;;;;5056894;28;20485;-66
2021/12/30 03:43:51;;;;;;;10.10;7.37;;;13.60;99.90;;;;;;5056956;28;20449;-66
2021/12/30 03:46:19;;;;;;;11.00;7.43;;;13.70;99.90;;;;;;5057004;28;20814;-66
2021/12/30 03:48:46;;;;;;;10.37;7.30;;;13.60;99.90;;;;;;5056824;28;20449;-66
2021/12/30 03:51:21;;;;;;;10.50;8.30;;;13.60;99.90;;;;;;5057002;28;20462;-66
2021/12/30 03:53:49;;;;;;;10.83;8.00;;;13.70;99.90;;;;;;5056825;28;20430;-66
2021/12/30 03:56:18;;;;;;;13.57;7.60;;;13.70;99.90;;;;;;5057013;28;20480;-66
2021/12/30 03:58:46;;;;;;;17.90;8.60;;;13.70;99.90;;;;;;5056358;28;20954;-66
2021/12/30 04:01:16;;;;;;;10.00;8.40;;;13.70;99.90;;;;;;5056511;28;20485;-66
2021/12/30 04:03:45;;;;;;;10.53;6.80;;;13.70;99.90;;;;;;5056700;28;20440;-66
2021/12/30 04:06:12;;;;;;;11.03;6.83;;;13.70;99.90;;;;;;5056567;28;20441;-66
2021/12/30 04:08:40;;;;;;;10.87;6.50;;;13.70;99.90;;;;;;5056522;28;20452;-66
2021/12/30 04:11:07;;;;;;;7.70;6.40;;;13.80;99.90;;;;;;5056551;28;20437;-66
2021/12/30 04:13:35;;;;;;;12.53;6.57;;;13.80;99.90;;;;;;5056462;28;20445;-66
2021/12/30 04:16:03;;;;;;;6.93;5.53;;;13.80;99.90;;;;;;5056358;28;20452;-66
2021/12/30 04:18:29;;;;;;;9.83;5.20;;;13.90;99.90;;;;;;5056133;28;20839;-66
2021/12/30 04:20:58;;;;;;;7.23;5.37;;;13.90;99.90;;;;;;5056199;28;20472;-69
2021/12/30 04:23:24;;;;;;;7.83;4.67;;;14.00;99.90;;;;;;5056244;28;20449;-67
2021/12/30 04:25:51;;;;;;;5.77;5.17;;;14.00;99.90;;;;;;5056139;28;20963;-66
2021/12/30 04:28:18;;;;;;;5.40;4.80;;;13.90;99.90;;;;;;5056155;28;20512;-66
2021/12/30 04:30:45;;;;;;;6.53;4.40;;;13.90;99.90;;;;;;5056127;28;20449;-66
2021/12/30 04:33:12;;;;;;;4.83;4.40;;;14.00;99.90;;;;;;5055737;28;20472;-66
2021/12/30 04:35:38;;;;;;;4.47;4.07;;;14.00;99.90;;;;;;5056004;28;20448;-66
2021/12/30 04:38:07;;;;;;;6.30;4.30;;;14.00;99.90;;;;;;5055980;28;20449;-66
2021/12/30 04:40:33;;;;;;;5.47;4.53;;;13.90;99.90;;;;;;5056055;28;20481;-66
2021/12/30 04:43:00;;;;;;;5.97;4.80;;;14.00;99.90;;;;;;5055963;28;20469;-66
2021/12/30 04:45:29;;;;;;;5.83;5.03;;;13.90;99.90;;;;;;5055844;28;20458;-66
2021/12/30 04:47:55;;;;;;;5.50;4.60;;;13.90;99.90;;;;;;5055731;28;20453;-66
2021/12/30 04:50:22;;;;;;;4.83;4.43;;;13.90;99.90;;;;;;5055481;28;20460;-66
2021/12/30 04:52:49;;;;;;;5.80;4.43;;;13.90;99.90;;;;;;5055598;28;20469;-68
2021/12/30 04:55:17;;;;;;;4.10;3.70;;;13.90;99.90;;;;;;5055629;28;20453;-68
2021/12/30 04:57:44;;;;;;;4.00;3.60;;;14.00;99.90;;;;;;5055564;28;20456;-68
2021/12/30 05:00:13;;;;;;;5.77;4.20;;;14.10;99.90;;;;;;5055513;28;20492;-69
2021/12/30 05:03:05;;;;;;;5.47;3.87;;;14.00;99.90;;;;;;5055464;28;20472;-69
2021/12/30 05:05:32;;;;;;;3.60;3.30;;;14.00;99.90;;;;;;5055433;28;20908;-69
2021/12/30 05:07:59;;;;;;;5.07;3.83;;;14.10;99.90;;;;;;5055304;28;20464;-68
2021/12/30 05:10:27;;;;;;;4.27;3.87;;;14.10;99.90;;;;;;5055339;28;20491;-66
2021/12/30 05:12:54;;;;;;;6.63;3.67;;;14.10;99.90;;;;;;5055324;28;20468;-66
2021/12/30 05:15:21;;;;;;;5.50;3.83;;;14.10;99.90;;;;;;5055350;28;20457;-66
2021/12/30 05:17:48;;;;;;;4.50;3.70;;;14.10;99.90;;;;;;5054897;28;20818;-66
2021/12/30 05:20:14;;;;;;;3.80;3.40;;;14.20;99.90;;;;;;5055040;28;20492;-66
2021/12/30 05:22:42;;;;;;;3.90;3.60;;;14.10;99.90;;;;;;5055110;28;20466;-66
2021/12/30 05:25:10;;;;;;;3.30;3.10;;;14.20;99.90;;;;;;5055068;28;20450;-66
2021/12/30 05:27:38;;;;;;;4.63;4.17;;;14.20;99.90;;;;;;5054986;28;20815;-66
2021/12/30 05:30:06;;;;;;;4.07;3.77;;;14.20;99.90;;;;;;5055010;28;20438;-66
2021/12/30 05:32:33;;;;;;;5.90;3.90;;;14.20;99.90;;;;;;5055202;28;20469;-68
2021/12/30 05:34:59;;;;;;;3.60;3.30;;;14.20;99.90;;;;;;5055301;28;20449;-69
2021/12/30 05:37:26;;;;;;;3.30;3.00;;;14.30;99.90;;;;;;5054934;28;20437;-69
2021/12/30 05:39:53;;;;;;;5.10;3.10;;;14.30;99.90;;;;;;5054198;28;20473;-68
2021/12/30 05:42:22;;;;;;;7.83;2.97;;;14.30;99.90;;;;;;5054411;28;20468;-69
2021/12/30 05:44:51;;;;;;;5.97;3.27;;;14.30;99.90;;;;;;5055039;28;20465;-68
2021/12/30 05:47:17;;;;;;;3.10;2.80;;;14.30;99.90;;;;;;5054997;28;20450;-68
2021/12/30 05:49:44;;;;;;;2.83;2.63;;;14.40;99.90;;;;;;5054681;28;20437;-69
2021/12/30 05:52:11;;;;;;;2.97;2.70;;;14.40;99.90;;;;;;5055217;28;20464;-68
2021/12/30 05:54:38;;;;;;;3.10;2.90;;;14.40;99.90;;;;;;5054554;28;20446;-68
2021/12/30 05:57:05;;;;;;;3.47;3.17;;;14.40;99.90;;;;;;5054156;28;20860;-68
2021/12/30 05:59:32;;;;;;;2.60;2.37;;;14.40;99.90;;;;;;5054428;28;20473;-66
2021/12/30 06:02:00;;;;;;;2.80;2.60;;;14.40;99.90;;;;;;5054091;28;20845;-66
2021/12/30 06:04:26;;;;;;;2.80;2.60;;;14.40;99.90;;;;;;5054542;28;20434;-66
2021/12/30 06:06:54;;;;;;;4.00;2.37;;;14.40;99.90;;;;;;5054407;28;20469;-66
2021/12/30 06:09:22;;;;;;;2.90;2.67;;;14.50;99.90;;;;;;5054217;28;20820;-66
2021/12/30 06:11:48;;;;;;;3.00;2.80;;;14.50;99.90;;;;;;5054086;28;20468;-66
2021/12/30 06:14:15;;;;;;;3.30;3.10;;;14.50;99.90;;;;;;5054163;28;20446;-66
2021/12/30 06:16:42;;;;;;;2.87;2.50;;;14.50;99.90;;;;;;5054368;28;20437;-66
2021/12/30 06:19:10;;;;;;;3.33;2.93;;;14.50;99.90;;;;;;5053858;28;20480;-66
2021/12/30 06:21:37;;;;;;;2.50;2.30;;;14.50;99.90;;;;;;5053908;28;20481;-66
2021/12/30 06:24:04;;;;;;;3.17;2.23;;;14.50;99.90;;;;;;5054006;28;20450;-66
2021/12/30 06:26:31;;;;;;;2.90;2.70;;;14.60;99.90;;;;;;5053604;28;20804;-66
2021/12/30 06:28:58;;;;;;;2.20;2.10;;;14.60;99.90;;;;;;5053926;28;20445;-65
2021/12/30 06:31:25;;;;;;;2.80;2.60;;;14.60;99.90;;;;;;5053811;28;20465;-66
2021/12/30 06:33:51;;;;;;;3.50;3.20;;;14.60;99.90;;;;;;5053917;28;20491;-68
2021/12/30 06:36:21;;;;;;;2.57;2.37;;;14.60;99.90;;;;;;5053747;28;20454;-68
2021/12/30 06:38:48;;;;;;;2.93;2.73;;;14.60;99.90;;;;;;5053795;28;20484;-68
2021/12/30 06:41:15;;;;;;;3.10;2.67;;;14.60;99.90;;;;;;5053545;28;20489;-69
2021/12/30 06:43:42;;;;;;;3.50;3.13;;;14.60;99.90;;;;;;5053806;28;20445;-68
2021/12/30 06:46:10;;;;;;;2.50;2.40;;;14.60;99.90;;;;;;5053813;28;20445;-68
2021/12/30 06:48:38;;;;;;;3.37;3.17;;;14.60;99.90;;;;;;5053597;28;20454;-68
2021/12/30 06:51:05;;;;;;;3.43;3.13;;;14.60;99.90;;;;;;5052727;28;20452;-68
2021/12/30 06:53:34;;;;;;;3.53;3.33;;;14.60;99.90;;;;;;5053691;28;20446;-68
2021/12/30 06:56:00;;;;;;;3.20;3.00;;;14.60;99.90;;;;;;5053102;28;20460;-66
2021/12/30 06:58:27;;;;;;;3.50;3.30;;;14.60;99.90;;;;;;5053085;28;20485;-66
2021/12/30 07:00:54;;;;;;;4.30;3.60;;;14.60;99.90;;;;;;5053351;28;20492;-66
2021/12/30 07:03:21;;;;;;;3.10;2.90;;;14.60;99.90;;;;;;5053321;28;20453;-66
2021/12/30 07:05:48;;;;;;;3.37;3.03;;;14.60;99.90;;;;;;5053232;28;20442;-66
2021/12/30 07:08:14;;;;;;;3.63;3.37;;;14.60;99.90;;;;;;5053289;28;20445;-66
2021/12/30 07:10:42;;;;;;;3.10;2.90;;;14.60;99.90;;;;;;5053205;28;20426;-66
2021/12/30 07:13:09;;;;;;;4.10;3.60;;;14.60;99.90;;;;;;5052757;28;20465;-66
2021/12/30 07:15:36;;;;;;;3.27;2.97;;;14.60;99.90;;;;;;5053139;28;20445;-66
2021/12/30 07:18:03;;;;;;;2.80;2.60;;;14.60;99.90;;;;;;5053332;28;20452;-66
2021/12/30 07:20:29;;;;;;;2.70;2.27;;;14.60;99.90;;;;;;5053007;28;20481;-66
2021/12/30 07:22:56;;;;;;;2.77;2.37;;;14.60;99.90;;;;;;5053073;28;20466;-66
2021/12/30 07:25:23;;;;;;;2.87;2.57;;;14.60;99.90;;;;;;5053455;28;20442;-66
2021/12/30 07:27:54;;;;;;;2.50;2.30;;;14.60;99.90;;;;;;5053170;28;20445;-66
2021/12/30 07:30:22;;;;;;;2.20;2.10;;;14.60;99.90;;;;;;5052879;28;20837;-66
2021/12/30 07:32:50;;;;;;;3.37;2.63;;;14.60;99.90;;;;;;5053447;28;20458;-68
2021/12/30 07:35:18;;;;;;;2.47;2.27;;;14.70;99.90;;;;;;5053193;28;20515;-68
2021/12/30 07:37:45;;;;;;;2.93;2.73;;;14.70;99.90;;;;;;5053070;28;20457;-68
2021/12/30 07:40:12;;;;;;;2.00;1.90;;;14.60;99.90;;;;;;5053081;28;20445;-68
2021/12/30 07:42:40;;;;;;;2.50;2.30;;;14.70;99.90;;;;;;5053303;28;20472;-66
2021/12/30 07:45:10;;;;;;;2.60;2.40;;;14.70;99.90;;;;;;5053837;28;20449;-65
2021/12/30 07:47:37;;;;;;;2.57;2.37;;;14.70;99.90;;;;;;5053060;28;20441;-65
2021/12/30 07:50:04;;;;;;;1.97;1.87;;;14.60;99.90;;;;;;5053111;28;20456;-65
2021/12/30 07:52:31;;;;;;;1.93;1.83;;;14.60;99.90;;;;;;5053444;28;20465;-65
2021/12/30 07:54:58;;;;;;;2.43;2.23;;;14.70;99.90;;;;;;5053053;28;20446;-65
2021/12/30 07:57:25;;;;;;;2.50;2.40;;;14.70;99.90;;;;;;5053296;28;20449;-66
2021/12/30 07:59:53;;;;;;;3.43;2.73;;;14.60;99.90;;;;;;5052835;28;20936;-65
2021/12/30 08:02:21;;;;;;;2.43;2.23;;;14.60;99.90;;;;;;5053102;28;20489;-66
2021/12/30 08:04:48;;;;;;;2.73;2.20;;;14.60;99.90;;;;;;5056909;28;20452;-66
2021/12/30 08:07:36;;;;;;;2.60;2.40;;;14.60;99.90;;;;;;5056763;28;20430;-65
2021/12/30 08:10:26;;;;;;;2.40;2.27;;;14.60;99.90;;;;;;5055902;28;20445;-65
2021/12/30 08:12:54;;;;;;;2.20;2.10;;;14.60;99.90;;;;;;5056489;28;20476;-65
2021/12/30 08:15:22;;;;;;;2.57;2.37;;;14.70;99.90;;;;;;5056439;28;20537;-66
2021/12/30 08:17:51;;;;;;;1.93;1.60;;;14.70;99.90;;;;;;5056359;28;20456;-66
2021/12/30 08:20:19;;;;;;;2.20;2.10;;;14.70;99.90;;;;;;5056374;28;20947;-66
2021/12/30 08:22:46;;;;;;;2.73;1.93;;;14.70;99.90;;;;;;5055773;28;20492;-65
2021/12/30 08:25:14;;;;;;;2.20;2.00;;;14.70;99.90;;;;;;5056322;28;20449;-65
2021/12/30 08:27:41;;;;;;;1.97;1.87;;;14.70;99.90;;;;;;5055969;28;20950;-66
2021/12/30 08:30:11;;;;;;;3.37;2.17;;;14.70;99.90;;;;;;5056214;28;20446;-65
2021/12/30 08:32:38;;;;;;;1.80;1.70;;;14.70;99.90;;;;;;5056265;28;20991;-65
2021/12/30 08:35:08;;;;;;;2.20;1.87;;;14.60;99.90;;;;;;5056360;28;20460;-65
2021/12/30 08:37:35;;;;;;;2.33;2.13;;;14.60;99.90;;;;;;5056161;28;20442;-65
2021/12/30 08:40:03;;;;;;;2.30;2.00;;;14.70;99.90;;;;;;5057555;28;20446;-66
2021/12/30 08:42:31;;;;;;;2.47;1.90;;;14.70;99.90;;;;;;5055582;28;20893;-67
2021/12/30 08:44:59;;;;;;;3.53;2.10;;;14.70;99.90;;;;;;5055560;28;20825;-67
2021/12/30 08:47:27;;;;;;;2.23;2.13;;;14.70;99.90;;;;;;5055801;28;20449;-68
2021/12/30 08:49:55;;;;;;;3.33;2.27;;;14.70;99.90;;;;;;5056059;28;20446;-67
2021/12/30 08:52:27;;;;;;;1.90;1.80;;;14.70;99.90;;;;;;5055528;28;20959;-67
2021/12/30 08:54:55;;;;;;;2.00;1.90;;;14.70;99.90;;;;;;5055614;28;20903;-67
2021/12/30 08:57:23;;;;;;;2.80;2.60;;;14.70;99.90;;;;;;5055708;28;20529;-67
2021/12/30 08:59:50;;;;;;;2.50;2.30;;;14.70;99.90;;;;;;5055727;28;20550;-68
2021/12/30 09:02:17;;;;;;;2.20;2.10;;;14.70;99.90;;;;;;5055516;28;20493;-67
2021/12/30 09:04:46;;;;;;;2.07;1.87;;;14.80;99.90;;;;;;5055544;28;20861;-67
2021/12/30 09:07:13;;;;;;;1.73;1.63;;;14.80;99.90;;;;;;5055573;28;20453;-68
2021/12/30 09:09:43;;;;;;;2.30;2.10;;;14.80;99.90;;;;;;5055492;28;20849;-69
2021/12/30 09:12:10;;;;;;;1.60;1.50;;;14.90;99.90;;;;;;5055260;28;20967;-68
2021/12/30 09:14:37;;;;;;;2.10;1.50;;;14.90;99.90;;;;;;5054492;28;20446;-69
2021/12/30 09:17:05;;;;;;;1.30;1.20;;;14.90;99.90;;;;;;5055636;28;20441;-68
2021/12/30 09:19:32;;;;;;;1.03;0.97;;;15.00;99.90;;;;;;5054864;28;21057;-67
2021/12/30 09:21:59;;;;;;;2.30;1.33;;;15.00;99.90;;;;;;5055107;28;20488;-67
2021/12/30 09:24:25;;;;;;;2.07;1.10;;;15.00;99.90;;;;;;5055302;28;20457;-66
2021/12/30 09:26:53;;;;;;;1.63;1.50;;;15.10;99.90;;;;;;5055146;28;20457;-66
2021/12/30 09:29:20;;;;;;;1.57;1.47;;;15.10;99.90;;;;;;5055056;28;20452;-67
2021/12/30 09:31:50;;;;;;;1.47;1.37;;;15.10;99.90;;;;;;5055205;28;20466;-66
2021/12/30 09:34:18;;;;;;;1.90;1.80;;;15.10;99.90;;;;;;5055679;28;20457;-66
2021/12/30 09:36:45;;;;;;;1.93;1.83;;;15.10;99.90;;;;;;5054902;28;20426;-66
2021/12/30 09:39:13;;;;;;;1.97;1.87;;;15.10;99.90;;;;;;5054741;28;20450;-67
2021/12/30 09:41:43;;;;;;;3.63;1.93;;;15.10;99.90;;;;;;5054662;28;20485;-66
2021/12/30 09:44:14;;;;;;;1.97;1.87;;;15.20;99.90;;;;;;5055065;28;20544;-66
2021/12/30 09:46:41;;;;;;;3.00;1.90;;;15.20;99.90;;;;;;5054764;28;20505;-66
2021/12/30 09:49:10;;;;;;;2.73;2.30;;;15.20;99.90;;;;;;5054410;28;20437;-66
2021/12/30 09:51:37;;;;;;;1.90;1.80;;;15.30;99.90;;;;;;5054524;28;20465;-67
2021/12/30 09:54:04;;;;;;;2.23;1.87;;;15.30;99.90;;;;;;5054539;28;20454;-66
2021/12/30 09:56:32;;;;;;;2.97;2.17;;;15.20;99.90;;;;;;5054595;28;20450;-66
2021/12/30 09:58:59;;;;;;;2.23;2.00;;;15.30;99.90;;;;;;5054493;28;20456;-66
2021/12/30 10:01:27;;;;;;;1.90;1.80;;;15.30;99.90;;;;;;5054332;28;20489;-66
2021/12/30 10:03:56;;;;;;;2.10;2.00;;;15.30;99.90;;;;;;5054430;28;20434;-66
2021/12/30 10:06:23;;;;;;;2.43;1.63;;;15.30;99.90;;;;;;5054394;28;20563;-66
2021/12/30 10:08:55;;;;;;;1.40;1.30;;;15.40;99.90;;;;;;5054354;28;20449;-66
2021/12/30 10:11:21;;;;;;;1.50;1.40;;;15.40;99.90;;;;;;5054288;28;20465;-66
2021/12/30 10:13:52;;;;;;;2.43;1.87;;;15.40;99.90;;;;;;5054197;28;20449;-66
2021/12/30 10:16:20;;;;;;;1.23;1.23;;;15.40;99.90;;;;;;5054463;28;20446;-66
2021/12/30 10:18:50;;;;;;;1.53;1.17;;;15.40;99.90;;;;;;5054084;28;20568;-65
2021/12/30 10:21:19;;;;;;;1.00;1.00;;;15.40;99.90;;;;;;5053818;28;20890;-66
2021/12/30 10:23:48;;;;;;;1.80;1.70;;;15.50;99.90;;;;;;5053938;28;20452;-66
2021/12/30 10:26:15;;;;;;;3.83;1.60;;;15.40;99.90;;;;;;5053879;28;20453;-66
2021/12/30 10:28:43;;;;;;;2.67;2.23;;;15.40;99.90;;;;;;5053990;28;20449;-66
2021/12/30 10:31:20;;;;;;;1.77;1.67;;;15.40;99.90;;;;;;5053799;28;20465;-66
2021/12/30 10:33:51;;;;;;;2.40;1.87;;;15.40;99.90;;;;;;5054234;28;20456;-66
2021/12/30 10:36:20;;;;;;;4.33;1.50;;;15.50;99.90;;;;;;5053860;28;20426;-65
2021/12/30 10:38:47;;;;;;;2.60;1.90;;;15.60;99.90;;;;;;5053920;28;20437;-65
2021/12/30 10:41:14;;;;;;;4.60;2.40;;;15.50;99.90;;;;;;5053586;28;20465;-66
2021/12/30 10:43:46;;;;;;;2.17;1.60;;;15.60;99.90;;;;;;5053790;28;20453;-65
2021/12/30 10:46:18;;;;;;;1.83;1.67;;;15.60;99.90;;;;;;5053824;28;20430;-65
2021/12/30 10:48:59;;;;;;;3.77;1.93;;;15.60;99.90;;;;;;5053703;28;20430;-66
2021/12/30 10:51:32;;;;;;;2.73;2.00;;;15.70;99.90;;;;;;5053324;28;20990;-66
2021/12/30 10:54:00;;;;;;;4.50;2.30;;;15.70;99.90;;;;;;5053615;28;20936;-66
2021/12/30 10:56:35;;;;;;;3.77;2.03;;;15.70;99.90;;;;;;5053727;28;20442;-66
2021/12/30 10:59:22;;;;;;;4.17;2.10;;;15.70;99.90;;;;;;5053606;28;20434;-66
2021/12/30 11:01:51;;;;;;;6.33;2.37;;;15.70;99.90;;;;;;5053645;28;20490;-68
2021/12/30 11:04:20;;;;;;;3.80;1.90;;;15.70;99.90;;;;;;5053546;28;20445;-68
2021/12/30 11:06:48;;;;;;;4.00;1.90;;;15.70;99.90;;;;;;5053172;28;20788;-68
2021/12/30 11:09:18;;;;;;;4.43;2.20;;;15.80;99.90;;;;;;5053385;28;20453;-68
2021/12/30 11:11:49;;;;;;;3.90;1.87;;;15.80;99.90;;;;;;5053870;28;20465;-68
2021/12/30 11:14:17;;;;;;;7.03;2.57;;;15.70;99.90;;;;;;5053355;28;20449;-68
2021/12/30 11:17:03;;;;;;;5.67;2.63;;;15.60;99.90;;;;;;5053419;28;20495;-66
2021/12/30 11:19:33;;;;;;;3.83;2.17;;;15.70;99.90;;;;;;5052888;28;20559;-66
2021/12/30 11:22:03;;;;;;;4.90;2.10;;;15.60;99.90;;;;;;5053138;28;20485;-66
2021/12/30 11:24:31;;;;;;;4.40;2.00;;;15.60;99.90;;;;;;5052947;28;20445;-66
2021/12/30 11:26:59;;;;;;;3.00;2.30;;;15.60;99.90;;;;;;5053417;28;20445;-68
2021/12/30 11:29:26;;;;;;;3.10;2.10;;;15.60;99.90;;;;;;5052943;28;20952;-68
2021/12/30 11:31:53;;;;;;;3.57;2.37;;;15.70;99.90;;;;;;5053337;28;20461;-68
2021/12/30 11:34:22;;;;;;;2.70;2.07;;;15.70;99.90;;;;;;5053423;28;20445;-68
2021/12/30 11:36:51;;;;;;;4.13;2.23;;;15.70;99.90;;;;;;5053134;28;20791;-69
2021/12/30 11:39:20;;;;;;;3.57;2.80;;;15.70;99.90;;;;;;5056500;28;20966;-67
2021/12/30 11:41:53;;;;;;;6.83;2.30;;;15.70;99.90;;;;;;5057198;28;20482;-69
2021/12/30 11:44:44;;;;;;;7.20;2.23;;;15.70;99.90;;;;;;5056825;28;20434;-68
2021/12/30 11:47:42;;;;;;;4.23;2.50;;;15.80;99.90;;;;;;5057034;28;20434;-68
2021/12/30 11:50:15;;;;;;;3.43;2.50;;;15.70;99.90;;;;;;5056684;28;20794;-68
2021/12/30 11:52:48;;;;;;;3.13;2.27;;;15.80;99.90;;;;;;5056941;28;20512;-69
2021/12/30 11:55:52;;;;;;;2.70;2.27;;;15.90;99.90;;;;;;5056888;28;20452;-68
2021/12/30 11:58:36;;;;;;;3.60;2.33;;;16.00;99.90;;;;;;5056807;28;20449;-68
2021/12/30 12:01:05;;;;;;;3.30;2.20;;;15.90;99.90;;;;;;5056749;28;20491;-69
2021/12/30 12:03:35;;;;;;;2.67;1.70;;;16.00;99.90;;;;;;5056797;28;20481;-67
2021/12/30 12:06:01;;;;;;;4.73;2.20;;;16.00;99.90;;;;;;5056650;28;20927;-67
2021/12/30 12:08:41;;;;;;;3.63;2.43;;;16.00;99.90;;;;;;5056716;28;20425;-67
2021/12/30 12:11:13;;;;;;;4.07;2.60;;;16.00;99.90;;;;;;5056664;28;20448;-66
2021/12/30 12:13:42;;;;;;;3.00;2.00;;;15.90;99.90;;;;;;5056508;28;20429;-65
2021/12/30 12:16:09;;;;;;;6.00;1.97;;;15.90;99.90;;;;;;5056512;28;20441;-66
2021/12/30 12:18:37;;;;;;;5.80;2.20;;;15.80;99.90;;;;;;5056274;28;20460;-66
2021/12/30 12:21:06;;;;;;;6.87;2.37;;;15.90;99.90;;;;;;5056394;28;20499;-66
2021/12/30 12:23:36;;;;;;;3.20;1.80;;;15.80;99.90;;;;;;5056281;28;20477;-66
2021/12/30 12:26:11;;;;;;;2.57;1.77;;;15.90;99.90;;;;;;5056442;28;20441;-65
2021/12/30 12:28:38;;;;;;;5.60;1.73;;;15.80;99.90;;;;;;5056381;28;20434;-65
2021/12/30 12:31:07;;;;;;;7.67;2.10;;;15.80;99.90;;;;;;5057148;28;20450;-66
2021/12/30 12:33:35;;;;;;;2.17;1.97;;;15.90;99.90;;;;;;5056460;28;20442;-66
2021/12/30 12:36:08;;;;;;;4.40;1.97;;;15.90;99.90;;;;;;5056358;28;20453;-66
2021/12/30 12:38:45;;;;;;;4.90;1.90;;;15.90;99.90;;;;;;5056352;28;20430;-66
2021/12/30 12:41:24;;;;;;;4.77;1.87;;;16.00;99.90;;;;;;5056026;28;20472;-66
2021/12/30 12:43:55;;;;;;;3.80;2.00;;;16.00;99.90;;;;;;5055949;28;20470;-66
2021/12/30 12:46:38;;;;;;;5.07;2.00;;;16.00;99.90;;;;;;5055982;28;20421;-65
2021/12/30 12:49:06;;;;;;;3.73;1.93;;;16.00;99.90;;;;;;5054638;28;20429;-66
2021/12/30 12:51:34;;;;;;;1.90;1.80;;;16.00;99.90;;;;;;5055907;28;20473;-66